Hatfield, Minnesota
Current Conditions -  °F | °C
As of 7:14 PM on Sunday 21 Dec 2014 (Local Time) from KPQN Reporting Station
Light Rain Light Rain  
Wind Chill: -4°   Ceiling: 100
Heat Index:   Visibility: 1.5mi
Dew Point:   Wind: 18mph
Humidity: 100%   Direction: 200°SSW
Pressure: 29.58"   Gusts: NA
Location:  44.066°N, 96.3302°W
Report Text: KPQN 220114Z AUTO 20016KT 1 1/2SM -RA OVC001 02/02 A2958 RMK AO2
Loading
Personal Weather Stations






























Interactive Weather Map New forecast layout! Learn more

10-Day Weather Forecast

Advertisements
Track Severe Weather on mobile